Abington, CT

6:54 PM EDT on May 30, 2015 (GMT -0400)
Windham | | Change Station
CLOSE
Current Station
Airport
Location: Willimantic,
Elevation: 246 ft
Nearby Weather Stations

Elev 246 ft 41.74 °N, 72.18 °W | Updated 2 hours ago

Clear
Clear
81 °F
Feels Like 82 °F
N
14
Wind Variable Wind from SSW
Gusts 23 mph

Today
High -- | Low -- °F
--% Chance of Precip.
Yesterday
High -- | Low -- °F
Precip. -- in
5:16 AM 8:14 PM
Waxing Gibbous, 92% visible
Pressure 30.09 in
Visibility 10.0 miles
Clouds Clear
Heat Index 82 °F
Dew Point 62 °F
Humidity 52%
Rainfall 0.00 in
Snow Depth Not available.
UV 4 out of 12
Pollen 9.40 out of 12
Air Quality Not available.
Flu Activity Local Activity
METAR KIJD 302052Z AUTO 21012G20KT 10SM CLR 27/17 A3009 RMK AO2 SLP188 T02720167 56016

More Conditions Fewer Conditions

Pressure 30.09 in
Visibility 10.0 miles
Clouds Clear
Heat Index 82 °F
Dew Point 62 °F
Humidity 52%
Rainfall 0.00 in
Snow Depth Not available.
UV 4 out of 12
Pollen 9.40 out of 12
Air Quality Not available.
Flu Activity Local Activity
METAR KIJD 302052Z AUTO 21012G20KT 10SM CLR 27/17 A3009 RMK AO2 SLP188 T02720167 56016

More Conditions Fewer Conditions

10-Day Weather Forecast

Almanac

Astronomy

May. 30, 2015 Rise Set
Actual Time
Civil Twilight
Nautical Twilight
Astronomical Twilight
Moon
Length of Visible Light
Length of Day
Tomorrow will be .
, % of the Moon is Illuminated

Today's Extremes

State Highs State Lows

Community

WunderPhotos

Upload Photos

1,825,609 photos uploaded!

WunderBlogs® & News

Nearby

Air Quality

  Air Quality AQ Index Pollutant
Not available.

Snow Depth

Station Depth Elevation

Earthquake Activity

City Distance Mag. Time & Date
Minimum magnitude displayed is 2.5.

Coastal Water Temperatures

Place Temperature

Stations

Nearby Weather Stations

Station Location Temp. Windchill Dew Point Humidity Wind Precip. Elev Updated Type